Flight Track Log - Related Links

Times and Time Zones

All times are in EDT time to prevent confusion due to time zone crossing. See the TRS7805 flight status page for this flight to view local times or setup timezone preferences in your user account.

Time Position Orientation Groundspeed Altitude Reporting Facility
EDT Latitude Longitude Course Direction KTS MPH feet Rate Location/Type
Sat 08:25:04 AM 40.4836 -80.2750 179° South 190 219 2,800  Level FAA TRACON
Sat 08:25:45 AM 40.4356 -80.2736 159° South 257 296 4,300 2,175 Climbing FAA TRACON
Sat 08:26:24 AM 40.3969 -80.2542 159° South 272 313 5,700 2,962 Climbing FAA TRACON
Sat 08:27:04 AM 40.3361 -80.2242 162° South 296 341 8,200 3,525 Climbing FAA TRACON
Sat 08:27:44 AM 40.2825 -80.2008 158° South 304 350 10,400 2,571 Climbing FAA TRACON
Sat 08:28:14 AM 40.2436 -80.1806 160° South 312 359 11,200 2,200 Climbing Cleveland Center
Sat 08:29:14 AM 40.1475 -80.1350 160° South 353 406 13,700 2,750 Climbing Cleveland Center
Sat 08:30:14 AM 40.0494 -80.0894 177° South 369 425 16,700 2,500 Climbing Cleveland Center
Sat 08:31:14 AM 39.9431 -80.0822 191° South 374 430 18,700 2,200 Climbing Cleveland Center
Sat 08:32:14 AM 39.8328 -80.1100 193° South 385 443 21,100 2,400 Climbing Cleveland Center
Sat 08:34:04 AM 39.6303 -80.1700 193° South 404 465 25,500 1,861 Climbing FAA TRACON
Sat 08:34:52 AM 39.5606 -80.1908 191° South 420 483 26,000 231 Climbing FAA TRACON
Sat 08:36:14 AM 39.4056 -80.2306 191° South 407 468 26,000  Level Washington Center
Sat 08:37:15 AM 39.2897 -80.2606 192° South 417 480 26,000  Level Washington Center
Sat 08:38:14 AM 39.1803 -80.2911 193° South 411 473 26,000 101 Level Washington Center
Sat 08:39:14 AM 39.0664 -80.3239 193° South 411 473 26,200 992 Climbing Washington Center
Sat 08:40:15 AM 38.9544 -80.3567 194° South 416 479 28,000 1,008 Climbing Washington Center
Sat 08:41:13 AM 38.8425 -80.3919 195° South 416 479 28,200 1,361 Climbing Washington Center
Sat 08:42:14 AM 38.7158 -80.4344 192° South 422 486 30,700 1,854 Climbing Washington Center
Sat 08:43:16 AM 38.6061 -80.4644 192° South 422 486 32,000 655 Climbing Washington Center
Sat 08:44:13 AM 38.4964 -80.4942 193° South 414 476 32,000  Level Washington Center
Sat 08:45:14 AM 38.3931 -80.5244 165° South 414 476 32,000  Level Washington Center
Sat 08:46:14 AM 38.2800 -80.4853 154° Southeast 419 482 32,000 595 Level Washington Center
Sat 08:47:15 AM 38.1661 -80.4144 153° Southeast 426 490 33,200 1,008 Climbing Washington Center
Sat 08:48:13 AM 38.0358 -80.3297 153° Southeast 457 526 34,000 504 Climbing Washington Center
Sat 08:49:14 AM 37.9219 -80.2567 154° Southeast 467 537 34,200 496 Climbing Washington Center
Sat 08:50:14 AM 37.8058 -80.1836 154° Southeast 467 537 35,000 393 Climbing Washington Center
Sat 08:51:16 AM 37.6917 -80.1139 153° Southeast 467 537 35,000  Level Washington Center
Sat 08:52:13 AM 37.5900 -80.0472 153° Southeast 457 526 35,000  Level Washington Center
Sat 08:53:14 AM 37.4758 -79.9753 153° Southeast 457 526 35,000  Level Washington Center
Sat 08:54:14 AM 37.3494 -79.8947 154° Southeast 457 526 35,000  Level Washington Center
Sat 08:55:13 AM 37.2350 -79.8258 154° Southeast 457 526 35,000  Level Washington Center
Sat 08:56:14 AM 37.1186 -79.7542 152° Southeast 457 526 35,000  Level Washington Center
Sat 08:57:14 AM 37.0186 -79.6889 154° Southeast 457 526 35,000  Level Washington Center
Sat 08:58:14 AM 36.9042 -79.6181 154° Southeast 457 526 35,000  Level Washington Center
Sat 08:59:15 AM 36.7897 -79.5472 154° Southeast 457 526 35,000  Level Washington Center
Sat 09:00:13 AM 36.6731 -79.4764 153° Southeast 457 526 35,000  Level Washington Center
Sat 09:01:13 AM 36.5464 -79.3978 154° Southeast 457 526 35,000  Level Washington Center
Sat 09:02:14 AM 36.4317 -79.3275 155° Southeast 457 526 35,000  Level Washington Center
Sat 09:03:15 AM 36.3189 -79.2631 154° Southeast 451 519 35,000  Level Washington Center
Sat 09:04:15 AM 36.2164 -79.2014 155° Southeast 456 525 35,000  Level Washington Center
Sat 09:05:13 AM 36.1017 -79.1344 154° Southeast 456 525 35,000  Level Washington Center
Sat 09:06:13 AM 35.9867 -79.0653 154° Southeast 456 525 35,000  Level Washington Center
Sat 09:07:14 AM 35.8739 -78.9961 154° Southeast 456 525 35,000  Level Washington Center
Sat 09:08:15 AM 35.7592 -78.9272 155° Southeast 456 525 35,000  Level Washington Center
Sat 09:09:13 AM 35.6461 -78.8611 155° Southeast 456 525 35,000  Level Washington Center
Sat 09:10:14 AM 35.5331 -78.7953 153° Southeast 451 519 35,000  Level Washington Center
Sat 09:11:15 AM 35.4203 -78.7244 155° Southeast 451 519 35,000  Level Washington Center
Sat 09:12:15 AM 35.3050 -78.6589 154° Southeast 457 526 35,000  Level Washington Center
Sat 09:13:16 AM 35.1961 -78.5936 154° Southeast 451 519 35,000  Level Washington Center
Sat 09:14:13 AM 35.0850 -78.5286 154° Southeast 445 512 35,000  Level Washington Center
Sat 09:15:14 AM 34.9761 -78.4639 154° Southeast 439 505 35,000  Level Washington Center
Sat 09:16:14 AM 34.8650 -78.3992 155° Southeast 431 496 35,000  Level Washington Center
Sat 09:17:15 AM 34.7475 -78.3319 155° Southeast 436 502 35,000  Level Washington Center
Sat 09:18:13 AM 34.6383 -78.2703 154° Southeast 436 502 35,000  Level Washington Center
Sat 09:19:14 AM 34.5272 -78.2036 155° Southeast 442 509 35,000 246 Level Washington Center
Sat 09:20:15 AM 34.4181 -78.1422 155° Southeast 442 509 35,500 504 Climbing Washington Center
Sat 09:21:13 AM 34.3067 -78.0783 158° South 442 509 36,000 156 Climbing Washington Center
Sat 09:23:27 AM 34.0611 -77.9597 177° South 444 511 36,000  Level Jacksonville Center
Sat 09:24:27 AM 33.9442 -77.9511 177° South 425 489 36,000  Level Jacksonville Center
Sat 09:25:27 AM 33.8247 -77.9428 179° South 428 493 36,000  Level Jacksonville Center
Sat 09:26:27 AM 33.7058 -77.9397 178° South 423 487 36,000  Level Jacksonville Center
Sat 09:27:27 AM 33.5886 -77.9336 178° South 423 487 36,000  Level Jacksonville Center
Sat 09:28:27 AM 33.4694 -77.9281 177° South 428 493 36,000  Level Jacksonville Center
Sat 09:29:27 AM 33.3483 -77.9197 177° South 428 493 36,000  Level Jacksonville Center
Sat 09:30:27 AM 33.2269 -77.9117 178° South 428 493 36,000  Level Jacksonville Center
Sat 09:31:27 AM 33.1097 -77.9058 178° South 428 493 36,000  Level Jacksonville Center
Sat 09:32:27 AM 32.9864 -77.9003 178° South 428 493 36,000  Level Jacksonville Center
Sat 09:33:27 AM 32.8672 -77.8944 178° South 428 493 36,000  Level Jacksonville Center
Sat 09:34:27 AM 32.7481 -77.8889 177° South 434 499 36,000  Level Jacksonville Center
Sat 09:35:27 AM 32.6289 -77.8806 176° South 434 499 36,000  Level Jacksonville Center
Sat 09:36:27 AM 32.5072 -77.8700 178° South 439 505 36,000  Level Jacksonville Center
Sat 09:37:27 AM 32.3861 -77.8644 178° South 439 505 36,000  Level Jacksonville Center
Sat 09:38:27 AM 32.2647 -77.8589 176° South 444 511 36,000  Level Jacksonville Center
Sat 09:39:27 AM 32.1453 -77.8483 179° South 444 511 36,000  Level Jacksonville Center
Sat 09:40:27 AM 32.0222 -77.8453 176° South 444 511 36,000  Level Jacksonville Center
Sat 09:41:27 AM 31.8986 -77.8350 179° South 444 511 36,000  Level Jacksonville Center
Sat 09:42:27 AM 31.7753 -77.8319 178° South 444 511 36,000  Level Jacksonville Center
Sat 09:43:27 AM 31.6497 -77.8264 176° South 444 511 36,000  Level Jacksonville Center
Sat 09:44:27 AM 31.5242 -77.8164 179° South 444 511 36,000  Level Jacksonville Center
Sat 09:45:27 AM 31.4031 -77.8131 176° South 444 511 36,000  Level Jacksonville Center
Sat 09:46:27 AM 31.2794 -77.8028 178° South 444 511 36,000  Level Jacksonville Center
Sat 09:47:27 AM 31.1561 -77.7975 178° South 444 511 36,000  Level Jacksonville Center
Sat 09:48:27 AM 31.0328 -77.7919 176° South 444 511 36,000  Level Jacksonville Center
Sat 09:49:27 AM 30.9133 -77.7814 176° South 444 511 36,000  Level Jacksonville Center
Sat 09:50:27 AM 30.7897 -77.7714 178° South 444 511 36,000  Level Jacksonville Center
Sat 09:52:50 AM 30.4714 -77.7558 177° South 422 486 36,000  Level Miami Center
Sat 09:53:50 AM 30.3756 -77.7503 180° South 434 499 36,000  Level Miami Center
Sat 09:54:50 AM 30.2525 -77.7492 175° South 433 498 36,000  Level Miami Center
Sat 09:55:50 AM 30.1214 -77.7361 178° South 415 478 36,000  Level Miami Center
Sat 09:56:50 AM 30.0006 -77.7303 180° South 448 516 36,000  Level Miami Center
Sat 09:57:50 AM 29.8858 -77.7294 176° South 439 505 36,000  Level Miami Center
Sat 09:58:50 AM 29.7567 -77.7189 181° South 439 505 36,000  Level Miami Center
Sat 09:59:50 AM 29.6397 -77.7203 204° Southwest 439 505 36,000  Level Miami Center
Sat 10:00:50 AM 29.5414 -77.7694 221° Southwest 380 437 36,000  Level Miami Center
Sat 10:01:50 AM 29.4575 -77.8522 224° Southwest 386 444 36,000  Level Miami Center
Sat 10:02:50 AM 29.3817 -77.9372 221° Southwest 386 444 36,000  Level Miami Center
Sat 10:03:50 AM 29.2997 -78.0175 173° South 386 444 36,000  Level Miami Center
Sat 10:04:50 AM 29.1725 -77.9994 145° Southeast 407 468 36,000  Level Miami Center
Sat 10:05:50 AM 29.0689 -77.9153 146° Southeast 400 460 36,000  Level Miami Center
Sat 10:06:50 AM 28.9569 -77.8289 146° Southeast 438 504 36,000  Level Miami Center
Sat 10:07:50 AM 28.8406 -77.7400 146° Southeast 471 542 36,000  Level Miami Center
Sat 10:08:50 AM 28.7575 -77.6756 146° Southeast 478 550 36,000  Level Miami Center
Sat 10:09:50 AM 28.6264 -77.5753 146° Southeast 478 550 36,000  Level Miami Center
Sat 10:10:50 AM 28.5225 -77.4942 145° Southeast 471 542 36,000  Level Miami Center
Sat 10:11:50 AM 28.4164 -77.4108 153° Southeast 464 534 36,000  Level Miami Center
Sat 10:12:50 AM 28.2997 -77.3419 162° South 464 534 36,000  Level Miami Center
Sat 10:13:50 AM 28.1872 -77.3014 162° South 440 506 36,000  Level Miami Center
Sat 10:14:50 AM 28.0725 -77.2586 161° South 435 501 36,000  Level Miami Center
Sat 10:15:50 AM 27.9597 -77.2136 144° Southeast 435 501 36,000  Level Miami Center
Sat 10:16:50 AM 27.8492 -77.1217 135° Southeast 454 522 36,000  Level Miami Center
Sat 10:17:50 AM 27.7514 -77.0111 136° Southeast 478 550 36,000  Level Miami Center
Sat 10:18:50 AM 27.6492 -76.8983 140° Southeast 503 579 36,000  Level Miami Center
Sat 10:19:50 AM 27.5467 -76.8025 138° Southeast 488 562 36,000 550 Level Miami Center
Sat 10:20:50 AM 27.4483 -76.7042 138° Southeast 483 556 37,100 1,300 Climbing Miami Center
Sat 10:21:50 AM 27.3458 -76.6014 137° Southeast 483 556 38,600 950 Climbing Miami Center
Sat 10:22:50 AM 27.2433 -76.4942 139° Southeast 492 566 39,000 200 Climbing Miami Center
Sat 10:23:50 AM 27.1492 -76.4011 139° Southeast 478 550 39,000  Level Miami Center
Sat 10:24:50 AM 27.0486 -76.3033 137° Southeast 478 550 39,000  Level Miami Center
Sat 10:25:50 AM 26.9500 -76.2014 138° Southeast 485 558 39,000  Level Miami Center
Sat 10:26:50 AM 26.8511 -76.1017 139° Southeast 485 558 39,000  Level Miami Center
Sat 10:27:50 AM 26.7503 -76.0047 136° Southeast 480 552 39,000  Level Miami Center
Sat 10:28:50 AM 26.6683 -75.9169 139° Southeast 490 564 39,000  Level Miami Center
Sat 10:29:50 AM 26.5653 -75.8178 138° Southeast 479 551 39,000  Level Miami Center
Sat 10:30:50 AM 26.4642 -75.7167 139° Southeast 479 551 39,000  Level Miami Center
Sat 10:31:50 AM 26.3631 -75.6181 138° Southeast 478 550 39,000  Level Miami Center
Sat 10:32:50 AM 26.2661 -75.5217 138° Southeast 485 558 39,000  Level Miami Center
Sat 10:33:50 AM 26.1669 -75.4233 137° Southeast 484 557 39,000  Level Miami Center
Sat 10:34:50 AM 26.0742 -75.3272 140° Southeast 478 550 39,000  Level Miami Center
Sat 10:35:50 AM 25.9664 -75.2269 138° Southeast 483 556 39,000  Level Miami Center
Sat 10:36:50 AM 25.8692 -75.1289 138° Southeast 483 556 39,000  Level Miami Center
Sat 10:37:50 AM 25.7697 -75.0311 139° Southeast 483 556 39,000  Level Miami Center
Sat 10:38:50 AM 25.6683 -74.9336 140° Southeast 477 549 39,000  Level Miami Center
Sat 10:39:50 AM 25.5689 -74.8406 139° Southeast 472 543 39,000  Level Miami Center
Sat 10:40:50 AM 25.4628 -74.7367 139° Southeast 467 537 39,000  Level Miami Center
Sat 10:41:50 AM 25.3611 -74.6372 139° Southeast 467 537 39,000  Level Miami Center
Sat 10:42:50 AM 25.2636 -74.5425 139° Southeast 473 544 39,000  Level Miami Center
Sat 10:43:50 AM 25.1639 -74.4456 139° Southeast 466 536 39,000  Level Miami Center
Sat 10:44:50 AM 25.0639 -74.3489 139° Southeast 466 536 39,000  Level Miami Center
Sat 10:45:50 AM 24.9661 -74.2547 140° Southeast 466 536 39,000  Level Miami Center
Sat 10:46:50 AM 24.8683 -74.1631 138° Southeast 461 531 39,000  Level Miami Center
Sat 10:47:50 AM 24.7747 -74.0711 139° Southeast 461 531 39,000  Level Miami Center
Sat 10:48:50 AM 24.6725 -73.9731 140° Southeast 467 537 39,000  Level Miami Center
Sat 10:49:50 AM 24.5769 -73.8836 139° Southeast 467 537 39,000  Level Miami Center
Sat 10:50:50 AM 24.4789 -73.7903 139° Southeast 467 537 39,000  Level Miami Center
Sat 10:51:50 AM 24.3808 -73.6969 139° Southeast 462 532 39,000  Level Miami Center
Sat 10:52:50 AM 24.2825 -73.6036 139° Southeast 467 537 39,000  Level Miami Center
Sat 10:53:50 AM 24.1822 -73.5083 139° Southeast 467 537 39,000  Level Miami Center
Sat 10:54:50 AM 24.0842 -73.4153 140° Southeast 467 537 39,000  Level Miami Center
Sat 10:55:50 AM 23.9836 -73.3228 139° Southeast 467 537 39,000  Level Miami Center
Sat 10:56:50 AM 23.8853 -73.2300 139° Southeast 466 536 39,000  Level Miami Center
Sat 10:57:50 AM 23.7869 -73.1375 138° Southeast 466 536 39,000  Level Miami Center
Sat 10:58:50 AM 23.6972 -73.0494 142° Southeast 466 536 39,000  Level Miami Center
Sat 10:59:50 AM 23.5944 -72.9619 140° Southeast 466 536 39,000  Level Miami Center
Sat 11:00:50 AM 23.4833 -72.8589 139° Southeast 471 542 39,000  Level Miami Center
Sat 11:01:50 AM 23.3975 -72.7778 139° Southeast 465 535 39,000  Level Miami Center
Sat 11:02:50 AM 23.2881 -72.6750 139° Southeast 465 535 39,000  Level Miami Center
Sat 11:03:50 AM 23.1875 -72.5814 141° Southeast 480 552 39,000  Level Miami Center
Sat 11:04:50 AM 23.0867 -72.4919 139° Southeast 475 547 39,000  Level Miami Center
Sat 11:05:50 AM 22.9986 -72.4094 138° Southeast 475 547 39,000  Level Miami Center
Sat 11:06:50 AM 22.9019 -72.3158 142° Southeast 469 540 39,000  Level Miami Center
Sat 11:07:50 AM 22.7969 -72.2272 138° Southeast 469 540 39,000  Level Miami Center
Sat 11:08:50 AM 22.7000 -72.1339 141° Southeast 469 540 39,000  Level Miami Center
Sat 11:09:50 AM 22.5992 -72.0453 139° Southeast 464 534 39,000  Level Miami Center
Sat 11:10:50 AM 22.5022 -71.9547 141° Southeast 464 534 39,000  Level Miami Center
Sat 11:11:50 AM 22.3992 -71.8642 140° Southeast 464 534 39,000  Level Miami Center
Sat 11:12:50 AM 22.2981 -71.7717 139° Southeast 464 534 39,000  Level Miami Center
Sat 11:13:50 AM 22.1989 -71.6792 140° Southeast 464 534 39,000  Level Miami Center
Sat 11:14:50 AM 22.0978 -71.5889 140° Southeast 464 534 39,000  Level Miami Center
Sat 11:15:50 AM 21.9964 -71.4969 140° Southeast 464 534 39,000  Level Miami Center
Sat 11:16:50 AM 21.8908 -71.4028 139° Southeast 464 534 39,000  Level Miami Center
Sat 11:17:50 AM 21.7936 -71.3128 141° Southeast 464 534 39,000  Level Miami Center
Sat 11:18:50 AM 21.6925 -71.2233 139° Southeast 464 534 39,000  Level Miami Center
Sat 11:19:50 AM 21.5972 -71.1336 141° Southeast 464 534 39,000  Level Miami Center
Sat 11:20:50 AM 21.4917 -71.0403 141° Southeast 474 545 39,000  Level Miami Center
Sat 11:21:50 AM 21.3858 -70.9469 141° Southeast 480 552 39,000 -500 Level Miami Center
Sat 11:22:50 AM 21.2864 -70.8600 141° Southeast 480 552 38,000 -1,000 Descending Miami Center
Sat 11:23:50 AM 21.1850 -70.7711 140° Southeast 480 552 37,000 -500 Descending Miami Center
Sat 11:24:50 AM 21.0942 -70.6908 140° Southeast 474 545 37,000  Level Miami Center
Sat 11:25:50 AM 20.9925 -70.6000 140° Southeast 469 540 37,000  Level Miami Center
Sat 11:26:50 AM 20.8931 -70.5114 140° Southeast 469 540 37,000  Level Miami Center
Sat 11:27:50 AM 20.7914 -70.4208 141° Southeast 469 540 37,000  Level Miami Center
Sat 11:28:50 AM 20.6875 -70.3306 140° Southeast 469 540 37,000  Level Miami Center
Sat 11:29:50 AM 20.5881 -70.2422 140° Southeast 469 540 37,000  Level Miami Center
Sat 11:30:50 AM 20.4861 -70.1519 140° Southeast 469 540 37,000  Level Miami Center
Sat 11:31:50 AM 20.3864 -70.0619 142° Southeast 464 534 37,000 -950 Level Miami Center
Sat 11:32:50 AM 20.2825 -69.9744 140° Southeast 469 540 35,100 -2,550 Descending Miami Center
Sat 11:33:50 AM 20.1806 -69.8822 142° Southeast 469 540 31,900 -3,250 Descending Miami Center
Sat 11:34:50 AM 20.0725 -69.7908 140° Southeast 481 554 28,600 -2,400 Descending Miami Center
Sat 11:35:50 AM 19.9681 -69.6969 138° Southeast 488 562 27,100 -1,500 Descending Miami Center
Sat 11:43:15 AM 19.3016 -69.0681 138° Southeast  Level FlightAware
Sat 11:44:15 AM 19.2124 -68.9825 136° Southeast  Level FlightAware
Sat 11:45:15 AM 19.1261 -68.8936 138° Southeast  Level FlightAware
Sat 11:46:15 AM 19.0363 -68.8088 140° Southeast  Level FlightAware
Sat 11:47:15 AM 18.9442 -68.7275 138° Southeast  Level FlightAware
Sat 11:48:15 AM 18.8550 -68.6420 139° Southeast  Level FlightAware
Sat 11:49:15 AM 18.7647 -68.5587 144° Southeast  Level FlightAware
Sat 11:50:15 AM 18.6680 -68.4847 131° Southeast  Level FlightAware
Sat 11:51:15 AM 18.5891 -68.3891 113° Southeast  Level FlightAware
Sat 11:52:15 AM 18.5667 -68.3333 271° West  Level FlightAware
Sat 11:53:15 AM 18.5696 -68.4603 91° East  Level Estimated
Sat 11:54:15 AM 18.5667 -68.3333 271° West  Level FlightAware
Sat 11:55:15 AM 18.5696 -68.4603 91° East  Level Estimated
Sat 11:56:15 AM 18.5667 -68.3334 271° West  Level FlightAware
Sat 11:57:15 AM 18.5696 -68.4603 91° East  Level Estimated
Sat 11:58:15 AM 18.5667 -68.3333 271° West  Level FlightAware
Sat 11:59:15 AM 18.5696 -68.4603 91° East  Level Estimated
Sat 12:00:15 PM 18.5667 -68.3333 91° East  Level FlightAware

Login

Don't have an account? Register now (free) for customized features, flight alerts, and more!